sensor_id;sensor_type;location;lat;lon;timestamp;temperature;humidity
53599;DHT22;39485;45.702;11.364;2022-12-10T08:46:09;7.10;99.90
53599;DHT22;39485;45.702;11.364;2022-12-10T08:48:42;7.20;99.90
53599;DHT22;39485;45.702;11.364;2022-12-10T08:51:38;7.30;99.90
53599;DHT22;39485;45.702;11.364;2022-12-10T08:54:04;7.30;99.90
53599;DHT22;39485;45.702;11.364;2022-12-10T08:56:36;7.30;99.90
53599;DHT22;39485;45.702;11.364;2022-12-10T08:59:04;7.30;99.90
53599;DHT22;39485;45.702;11.364;2022-12-10T09:01:30;7.40;99.90
53599;DHT22;39485;45.702;11.364;2022-12-10T09:03:56;7.30;99.90
53599;DHT22;39485;45.702;11.364;2022-12-10T09:06:23;7.30;99.90
53599;DHT22;39485;45.702;11.364;2022-12-10T09:08:50;7.40;99.90
53599;DHT22;39485;45.702;11.364;2022-12-10T09:11:26;7.40;99.90
53599;DHT22;39485;45.702;11.364;2022-12-10T09:14:01;7.50;99.90
53599;DHT22;39485;45.702;11.364;2022-12-10T09:16:43;7.50;99.90
53599;DHT22;39485;45.702;11.364;2022-12-10T09:19:14;7.50;99.90
53599;DHT22;39485;45.702;11.364;2022-12-10T09:21:42;7.60;99.90
53599;DHT22;39485;45.702;11.364;2022-12-10T09:24:09;7.60;99.90
53599;DHT22;39485;45.702;11.364;2022-12-10T09:26:34;7.60;99.90
53599;DHT22;39485;45.702;11.364;2022-12-10T09:29:00;7.60;99.90
53599;DHT22;39485;45.702;11.364;2022-12-10T09:31:27;7.70;99.90
53599;DHT22;39485;45.702;11.364;2022-12-10T09:33:53;7.70;99.90
53599;DHT22;39485;45.702;11.364;2022-12-10T09:36:22;7.80;99.90
53599;DHT22;39485;45.702;11.364;2022-12-10T09:38:49;7.80;99.90
53599;DHT22;39485;45.702;11.364;2022-12-10T09:47:00;8.00;99.90
53599;DHT22;39485;45.702;11.364;2022-12-10T09:52:20;8.10;99.90
53599;DHT22;39485;45.702;11.364;2022-12-10T09:54:57;8.10;99.90
53599;DHT22;39485;45.702;11.364;2022-12-10T09:57:37;8.20;99.90
53599;DHT22;39485;45.702;11.364;2022-12-10T10:02:44;8.30;99.90
53599;DHT22;39485;45.702;11.364;2022-12-10T10:05:17;8.30;99.90
53599;DHT22;39485;45.702;11.364;2022-12-10T10:07:47;8.30;99.90
53599;DHT22;39485;45.702;11.364;2022-12-10T10:12:58;8.40;99.90
53599;DHT22;39485;45.702;11.364;2022-12-10T10:15:30;8.50;99.90
53599;DHT22;39485;45.702;11.364;2022-12-10T10:18:01;8.50;99.90
53599;DHT22;39485;45.702;11.364;2022-12-10T10:20:28;8.50;99.90
53599;DHT22;39485;45.702;11.364;2022-12-10T10:22:56;8.50;99.90
53599;DHT22;39485;45.702;11.364;2022-12-10T10:25:23;8.50;99.90
53599;DHT22;39485;45.702;11.364;2022-12-10T10:27:49;8.50;99.90
53599;DHT22;39485;45.702;11.364;2022-12-10T10:30:20;8.60;99.90
53599;DHT22;39485;45.702;11.364;2022-12-10T10:32:54;8.60;99.90
53599;DHT22;39485;45.702;11.364;2022-12-10T10:37:49;8.60;99.90
53599;DHT22;39485;45.702;11.364;2022-12-10T10:40:23;8.70;99.90
53599;DHT22;39485;45.702;11.364;2022-12-10T10:42:53;8.70;99.90
53599;DHT22;39485;45.702;11.364;2022-12-10T10:50:32;8.80;99.90
53599;DHT22;39485;45.702;11.364;2022-12-10T10:53:01;8.80;99.90
53599;DHT22;39485;45.702;11.364;2022-12-10T10:55:31;8.90;99.90
53599;DHT22;39485;45.702;11.364;2022-12-10T10:58:01;8.90;99.90
53599;DHT22;39485;45.702;11.364;2022-12-10T11:00:27;8.90;99.90
53599;DHT22;39485;45.702;11.364;2022-12-10T11:02:53;8.90;99.90
53599;DHT22;39485;45.702;11.364;2022-12-10T11:05:28;8.90;99.90
53599;DHT22;39485;45.702;11.364;2022-12-10T11:08:05;9.00;99.90
53599;DHT22;39485;45.702;11.364;2022-12-10T11:10:33;9.00;99.90
53599;DHT22;39485;45.702;11.364;2022-12-10T11:13:04;9.10;99.90
53599;DHT22;39485;45.702;11.364;2022-12-10T11:15:36;9.10;99.90
53599;DHT22;39485;45.702;11.364;2022-12-10T11:18:18;9.20;99.90
53599;DHT22;39485;45.702;11.364;2022-12-10T11:21:01;9.20;99.90
53599;DHT22;39485;45.702;11.364;2022-12-10T11:23:37;9.30;99.90
53599;DHT22;39485;45.702;11.364;2022-12-10T11:45:51;9.60;99.90
53599;DHT22;39485;45.702;11.364;2022-12-10T11:51:11;9.60;99.90
53599;DHT22;39485;45.702;11.364;2022-12-10T11:54:00;9.60;99.90
53599;DHT22;39485;45.702;11.364;2022-12-10T11:59:14;9.50;99.90
53599;DHT22;39485;45.702;11.364;2022-12-10T12:04:27;9.50;99.90
53599;DHT22;39485;45.702;11.364;2022-12-10T12:15:26;9.50;99.90
53599;DHT22;39485;45.702;11.364;2022-12-10T12:18:04;9.50;99.90
53599;DHT22;39485;45.702;11.364;2022-12-10T12:20:36;9.50;99.90
53599;DHT22;39485;45.702;11.364;2022-12-10T12:25:44;9.50;99.90
53599;DHT22;39485;45.702;11.364;2022-12-10T12:31:31;9.50;99.90
53599;DHT22;39485;45.702;11.364;2022-12-10T12:36:31;9.50;99.90
53599;DHT22;39485;45.702;11.364;2022-12-10T12:44:21;9.50;99.90
53599;DHT22;39485;45.702;11.364;2022-12-10T12:46:50;9.50;99.90
53599;DHT22;39485;45.702;11.364;2022-12-10T12:49:24;9.50;99.90
53599;DHT22;39485;45.702;11.364;2022-12-10T12:52:20;9.40;99.90
53599;DHT22;39485;45.702;11.364;2022-12-10T12:54:51;9.40;99.90
53599;DHT22;39485;45.702;11.364;2022-12-10T12:59:57;9.40;99.90
53599;DHT22;39485;45.702;11.364;2022-12-10T13:02:53;9.40;99.90
53599;DHT22;39485;45.702;11.364;2022-12-10T13:05:25;9.40;99.90
53599;DHT22;39485;45.702;11.364;2022-12-10T13:13:35;9.40;99.90
53599;DHT22;39485;45.702;11.364;2022-12-10T13:24:19;9.40;99.90
53599;DHT22;39485;45.702;11.364;2022-12-10T13:27:28;9.40;99.90
53599;DHT22;39485;45.702;11.364;2022-12-10T13:42:44;9.40;99.90
53599;DHT22;39485;45.702;11.364;2022-12-10T13:45:34;9.40;99.90
53599;DHT22;39485;45.702;11.364;2022-12-10T13:53:26;9.40;99.90
53599;DHT22;39485;45.702;11.364;2022-12-10T13:56:28;9.40;99.90
53599;DHT22;39485;45.702;11.364;2022-12-10T13:59:29;9.40;99.90
53599;DHT22;39485;45.702;11.364;2022-12-10T14:02:34;9.40;99.90
53599;DHT22;39485;45.702;11.364;2022-12-10T14:05:23;9.40;99.90
53599;DHT22;39485;45.702;11.364;2022-12-10T14:07:53;9.40;99.90
53599;DHT22;39485;45.702;11.364;2022-12-10T14:10:25;9.40;99.90
53599;DHT22;39485;45.702;11.364;2022-12-10T14:12:53;9.40;99.90
53599;DHT22;39485;45.702;11.364;2022-12-10T14:15:23;9.40;99.90
53599;DHT22;39485;45.702;11.364;2022-12-10T14:17:51;9.40;99.90
53599;DHT22;39485;45.702;11.364;2022-12-10T14:20:23;9.40;99.90
53599;DHT22;39485;45.702;11.364;2022-12-10T14:22:54;9.40;99.90
53599;DHT22;39485;45.702;11.364;2022-12-10T14:25:42;9.40;99.90
53599;DHT22;39485;45.702;11.364;2022-12-10T14:28:16;9.40;99.90
53599;DHT22;39485;45.702;11.364;2022-12-10T14:30:47;9.40;99.90
53599;DHT22;39485;45.702;11.364;2022-12-10T14:33:16;9.40;99.90
53599;DHT22;39485;45.702;11.364;2022-12-10T14:35:45;9.40;99.90
53599;DHT22;39485;45.702;11.364;2022-12-10T14:38:21;9.40;99.90
53599;DHT22;39485;45.702;11.364;2022-12-10T14:40:48;9.40;99.90
53599;DHT22;39485;45.702;11.364;2022-12-10T14:43:20;9.40;99.90
53599;DHT22;39485;45.702;11.364;2022-12-10T14:45:48;9.40;99.90
53599;DHT22;39485;45.702;11.364;2022-12-10T14:48:14;9.40;99.90
53599;DHT22;39485;45.702;11.364;2022-12-10T14:50:42;9.40;99.90
53599;DHT22;39485;45.702;11.364;2022-12-10T14:53:17;9.40;99.90
53599;DHT22;39485;45.702;11.364;2022-12-10T14:55:45;9.40;99.90
53599;DHT22;39485;45.702;11.364;2022-12-10T14:58:41;9.40;99.90
53599;DHT22;39485;45.702;11.364;2022-12-10T15:01:16;9.40;99.90
53599;DHT22;39485;45.702;11.364;2022-12-10T15:03:47;9.40;99.90
53599;DHT22;39485;45.702;11.364;2022-12-10T15:06:16;9.30;99.90
53599;DHT22;39485;45.702;11.364;2022-12-10T15:08:45;9.30;99.90
53599;DHT22;39485;45.702;11.364;2022-12-10T15:11:16;9.30;99.90
53599;DHT22;39485;45.702;11.364;2022-12-10T15:13:45;9.30;99.90
53599;DHT22;39485;45.702;11.364;2022-12-10T15:18:53;9.20;99.90
53599;DHT22;39485;45.702;11.364;2022-12-10T15:21:22;9.20;99.90
53599;DHT22;39485;45.702;11.364;2022-12-10T15:23:49;9.10;99.90
53599;DHT22;39485;45.702;11.364;2022-12-10T15:26:20;9.10;99.90
53599;DHT22;39485;45.702;11.364;2022-12-10T15:28:48;9.10;99.90
53599;DHT22;39485;45.702;11.364;2022-12-10T15:33:55;9.00;99.90
53599;DHT22;39485;45.702;11.364;2022-12-10T15:36:41;9.00;99.90
53599;DHT22;39485;45.702;11.364;2022-12-10T15:41:45;8.90;99.90
53599;DHT22;39485;45.702;11.364;2022-12-10T15:44:30;8.80;99.90
53599;DHT22;39485;45.702;11.364;2022-12-10T15:49:34;8.80;99.90
53599;DHT22;39485;45.702;11.364;2022-12-10T15:52:00;8.70;99.90
53599;DHT22;39485;45.702;11.364;2022-12-10T15:54:28;8.70;99.90
53599;DHT22;39485;45.702;11.364;2022-12-10T15:56:57;8.70;99.90
53599;DHT22;39485;45.702;11.364;2022-12-10T15:59:23;8.60;99.90
53599;DHT22;39485;45.702;11.364;2022-12-10T16:01:48;8.60;99.90
53599;DHT22;39485;45.702;11.364;2022-12-10T16:04:14;8.60;99.90
53599;DHT22;39485;45.702;11.364;2022-12-10T16:06:40;8.60;99.90
53599;DHT22;39485;45.702;11.364;2022-12-10T16:09:07;8.60;99.90
53599;DHT22;39485;45.702;11.364;2022-12-10T16:11:33;8.60;99.90
53599;DHT22;39485;45.702;11.364;2022-12-10T16:14:00;8.60;99.90
53599;DHT22;39485;45.702;11.364;2022-12-10T16:16:26;8.50;99.90
53599;DHT22;39485;45.702;11.364;2022-12-10T16:18:52;8.60;99.90
53599;DHT22;39485;45.702;11.364;2022-12-10T16:21:17;8.50;99.90
53599;DHT22;39485;45.702;11.364;2022-12-10T16:23:43;8.50;99.90
53599;DHT22;39485;45.702;11.364;2022-12-10T16:26:20;8.50;99.90
53599;DHT22;39485;45.702;11.364;2022-12-10T16:28:48;8.50;99.90
53599;DHT22;39485;45.702;11.364;2022-12-10T16:31:19;8.50;99.90
53599;DHT22;39485;45.702;11.364;2022-12-10T16:33:45;8.50;99.90
53599;DHT22;39485;45.702;11.364;2022-12-10T16:36:12;8.50;99.90
53599;DHT22;39485;45.702;11.364;2022-12-10T16:38:39;8.50;99.90
53599;DHT22;39485;45.702;11.364;2022-12-10T16:41:37;8.50;99.90
53599;DHT22;39485;45.702;11.364;2022-12-10T16:44:03;8.40;99.90
53599;DHT22;39485;45.702;11.364;2022-12-10T16:46:29;8.40;99.90
53599;DHT22;39485;45.702;11.364;2022-12-10T16:48:54;8.40;99.90
53599;DHT22;39485;45.702;11.364;2022-12-10T16:51:26;8.40;99.90
53599;DHT22;39485;45.702;11.364;2022-12-10T16:53:55;8.40;99.90
53599;DHT22;39485;45.702;11.364;2022-12-10T16:56:21;8.40;99.90
53599;DHT22;39485;45.702;11.364;2022-12-10T16:58:47;8.30;99.90
53599;DHT22;39485;45.702;11.364;2022-12-10T17:01:20;8.30;99.90
53599;DHT22;39485;45.702;11.364;2022-12-10T17:03:47;8.30;99.90
53599;DHT22;39485;45.702;11.364;2022-12-10T17:06:13;8.30;99.90
53599;DHT22;39485;45.702;11.364;2022-12-10T17:08:39;8.30;99.90
53599;DHT22;39485;45.702;11.364;2022-12-10T17:11:30;8.30;99.90
53599;DHT22;39485;45.702;11.364;2022-12-10T17:14:31;8.20;99.90
53599;DHT22;39485;45.702;11.364;2022-12-10T17:16:59;8.20;99.90
53599;DHT22;39485;45.702;11.364;2022-12-10T17:19:30;8.20;99.90
53599;DHT22;39485;45.702;11.364;2022-12-10T17:21:55;8.20;99.90
53599;DHT22;39485;45.702;11.364;2022-12-10T17:24:21;8.20;99.90
53599;DHT22;39485;45.702;11.364;2022-12-10T17:26:48;8.20;99.90
53599;DHT22;39485;45.702;11.364;2022-12-10T17:29:41;8.20;99.90
53599;DHT22;39485;45.702;11.364;2022-12-10T17:32:12;8.20;99.90
53599;DHT22;39485;45.702;11.364;2022-12-10T17:34:39;8.10;99.90
53599;DHT22;39485;45.702;11.364;2022-12-10T17:37:16;8.10;99.90
53599;DHT22;39485;45.702;11.364;2022-12-10T17:39:43;8.10;99.90
53599;DHT22;39485;45.702;11.364;2022-12-10T17:42:09;8.10;99.90
53599;DHT22;39485;45.702;11.364;2022-12-10T17:44:36;8.10;99.90
53599;DHT22;39485;45.702;11.364;2022-12-10T17:47:18;8.10;99.90
53599;DHT22;39485;45.702;11.364;2022-12-10T17:49:44;8.00;99.90
53599;DHT22;39485;45.702;11.364;2022-12-10T17:52:10;8.00;99.90
53599;DHT22;39485;45.702;11.364;2022-12-10T17:54:36;8.00;99.90
53599;DHT22;39485;45.702;11.364;2022-12-10T17:57:01;7.90;99.90
53599;DHT22;39485;45.702;11.364;2022-12-10T17:59:27;7.90;99.90
53599;DHT22;39485;45.702;11.364;2022-12-10T18:01:53;7.80;99.90
53599;DHT22;39485;45.702;11.364;2022-12-10T18:04:18;7.80;99.90
53599;DHT22;39485;45.702;11.364;2022-12-10T18:06:44;7.80;99.90
53599;DHT22;39485;45.702;11.364;2022-12-10T18:09:10;7.80;99.90
53599;DHT22;39485;45.702;11.364;2022-12-10T18:11:37;7.80;99.90
53599;DHT22;39485;45.702;11.364;2022-12-10T18:14:06;7.80;99.90
53599;DHT22;39485;45.702;11.364;2022-12-10T18:16:34;7.80;99.90
53599;DHT22;39485;45.702;11.364;2022-12-10T18:19:02;7.80;99.90
53599;DHT22;39485;45.702;11.364;2022-12-10T18:21:29;7.80;99.90
53599;DHT22;39485;45.702;11.364;2022-12-10T18:23:55;7.80;99.90
53599;DHT22;39485;45.702;11.364;2022-12-10T18:26:24;7.80;99.90
53599;DHT22;39485;45.702;11.364;2022-12-10T18:28:53;7.90;99.90
53599;DHT22;39485;45.702;11.364;2022-12-10T18:31:29;7.90;99.90
53599;DHT22;39485;45.702;11.364;2022-12-10T18:33:58;7.90;99.90
53599;DHT22;39485;45.702;11.364;2022-12-10T18:36:30;8.00;99.90
53599;DHT22;39485;45.702;11.364;2022-12-10T18:38:59;8.00;99.90
53599;DHT22;39485;45.702;11.364;2022-12-10T18:41:25;8.00;99.90
53599;DHT22;39485;45.702;11.364;2022-12-10T18:43:51;8.10;99.90
53599;DHT22;39485;45.702;11.364;2022-12-10T18:46:21;8.10;99.90
53599;DHT22;39485;45.702;11.364;2022-12-10T18:48:47;8.10;99.90
53599;DHT22;39485;45.702;11.364;2022-12-10T18:51:14;8.10;99.90
53599;DHT22;39485;45.702;11.364;2022-12-10T18:53:43;8.10;99.90
53599;DHT22;39485;45.702;11.364;2022-12-10T18:56:17;8.10;99.90
53599;DHT22;39485;45.702;11.364;2022-12-10T18:58:43;8.20;99.90
53599;DHT22;39485;45.702;11.364;2022-12-10T19:01:10;8.10;99.90
53599;DHT22;39485;45.702;11.364;2022-12-10T19:03:36;8.20;99.90
53599;DHT22;39485;45.702;11.364;2022-12-10T19:06:02;8.20;99.90
53599;DHT22;39485;45.702;11.364;2022-12-10T19:08:28;8.20;99.90
53599;DHT22;39485;45.702;11.364;2022-12-10T19:10:55;8.20;99.90
53599;DHT22;39485;45.702;11.364;2022-12-10T19:13:20;8.20;99.90
53599;DHT22;39485;45.702;11.364;2022-12-10T19:15:46;8.20;99.90
53599;DHT22;39485;45.702;11.364;2022-12-10T19:18:14;8.20;99.90
53599;DHT22;39485;45.702;11.364;2022-12-10T19:20:41;8.30;99.90
53599;DHT22;39485;45.702;11.364;2022-12-10T19:23:07;8.30;99.90
53599;DHT22;39485;45.702;11.364;2022-12-10T19:25:34;8.30;99.90
53599;DHT22;39485;45.702;11.364;2022-12-10T19:28:00;8.30;99.90
53599;DHT22;39485;45.702;11.364;2022-12-10T19:30:27;8.30;99.90
53599;DHT22;39485;45.702;11.364;2022-12-10T19:32:54;8.30;99.90
53599;DHT22;39485;45.702;11.364;2022-12-10T19:35:22;8.30;99.90
53599;DHT22;39485;45.702;11.364;2022-12-10T19:37:49;8.30;99.90
53599;DHT22;39485;45.702;11.364;2022-12-10T19:42:48;8.30;99.90
53599;DHT22;39485;45.702;11.364;2022-12-10T19:45:15;8.30;99.90
53599;DHT22;39485;45.702;11.364;2022-12-10T19:47:44;8.30;99.90
53599;DHT22;39485;45.702;11.364;2022-12-10T19:50:18;8.30;99.90
53599;DHT22;39485;45.702;11.364;2022-12-10T19:52:45;8.30;99.90
53599;DHT22;39485;45.702;11.364;2022-12-10T19:55:12;8.30;99.90
53599;DHT22;39485;45.702;11.364;2022-12-10T19:57:39;8.30;99.90
53599;DHT22;39485;45.702;11.364;2022-12-10T20:00:06;8.30;99.90
53599;DHT22;39485;45.702;11.364;2022-12-10T20:02:35;8.30;99.90
53599;DHT22;39485;45.702;11.364;2022-12-10T20:05:02;8.30;99.90
53599;DHT22;39485;45.702;11.364;2022-12-10T20:07:28;8.30;99.90
53599;DHT22;39485;45.702;11.364;2022-12-10T20:09:54;8.30;99.90
53599;DHT22;39485;45.702;11.364;2022-12-10T20:12:19;8.30;99.90
53599;DHT22;39485;45.702;11.364;2022-12-10T20:14:45;8.30;99.90
53599;DHT22;39485;45.702;11.364;2022-12-10T20:17:11;8.30;99.90
53599;DHT22;39485;45.702;11.364;2022-12-10T20:19:39;8.30;99.90
53599;DHT22;39485;45.702;11.364;2022-12-10T20:22:05;8.30;99.90
53599;DHT22;39485;45.702;11.364;2022-12-10T20:24:32;8.30;99.90
53599;DHT22;39485;45.702;11.364;2022-12-10T20:26:58;8.30;99.90
53599;DHT22;39485;45.702;11.364;2022-12-10T20:29:25;8.30;99.90
53599;DHT22;39485;45.702;11.364;2022-12-10T20:31:53;8.30;99.90
53599;DHT22;39485;45.702;11.364;2022-12-10T20:34:20;8.20;99.90
53599;DHT22;39485;45.702;11.364;2022-12-10T20:36:47;8.20;99.90
53599;DHT22;39485;45.702;11.364;2022-12-10T20:39:25;8.30;99.90
53599;DHT22;39485;45.702;11.364;2022-12-10T20:41:53;8.20;99.90
53599;DHT22;39485;45.702;11.364;2022-12-10T20:44:20;8.30;99.90
53599;DHT22;39485;45.702;11.364;2022-12-10T20:46:46;8.20;99.90
53599;DHT22;39485;45.702;11.364;2022-12-10T20:49:13;8.20;99.90
53599;DHT22;39485;45.702;11.364;2022-12-10T20:51:39;8.20;99.90
53599;DHT22;39485;45.702;11.364;2022-12-10T20:54:05;8.20;99.90
53599;DHT22;39485;45.702;11.364;2022-12-10T20:56:31;8.20;99.90
53599;DHT22;39485;45.702;11.364;2022-12-10T20:58:57;8.20;99.90
53599;DHT22;39485;45.702;11.364;2022-12-10T21:01:22;8.20;99.90
53599;DHT22;39485;45.702;11.364;2022-12-10T21:03:48;8.20;99.90
53599;DHT22;39485;45.702;11.364;2022-12-10T21:06:19;8.20;99.90
53599;DHT22;39485;45.702;11.364;2022-12-10T21:08:50;8.20;99.90
53599;DHT22;39485;45.702;11.364;2022-12-10T21:11:17;8.20;99.90
53599;DHT22;39485;45.702;11.364;2022-12-10T21:13:42;8.10;99.90
53599;DHT22;39485;45.702;11.364;2022-12-10T21:16:14;8.10;99.90
53599;DHT22;39485;45.702;11.364;2022-12-10T21:18:40;8.10;99.90
53599;DHT22;39485;45.702;11.364;2022-12-10T21:21:06;8.10;99.90
53599;DHT22;39485;45.702;11.364;2022-12-10T21:23:32;8.10;99.90
53599;DHT22;39485;45.702;11.364;2022-12-10T21:25:58;8.10;99.90
53599;DHT22;39485;45.702;11.364;2022-12-10T21:28:25;8.10;99.90
53599;DHT22;39485;45.702;11.364;2022-12-10T21:30:52;8.10;99.90
53599;DHT22;39485;45.702;11.364;2022-12-10T21:33:21;8.10;99.90
53599;DHT22;39485;45.702;11.364;2022-12-10T21:35:47;8.00;99.90
53599;DHT22;39485;45.702;11.364;2022-12-10T21:38:14;8.00;99.90
53599;DHT22;39485;45.702;11.364;2022-12-10T21:40:42;8.00;99.90
53599;DHT22;39485;45.702;11.364;2022-12-10T21:43:12;8.00;99.90
53599;DHT22;39485;45.702;11.364;2022-12-10T21:45:47;8.00;99.90
53599;DHT22;39485;45.702;11.364;2022-12-10T21:48:14;7.90;99.90
53599;DHT22;39485;45.702;11.364;2022-12-10T21:50:41;8.00;99.90
53599;DHT22;39485;45.702;11.364;2022-12-10T21:53:08;7.90;99.90
53599;DHT22;39485;45.702;11.364;2022-12-10T21:55:35;7.90;99.90
53599;DHT22;39485;45.702;11.364;2022-12-10T21:58:02;7.90;99.90
53599;DHT22;39485;45.702;11.364;2022-12-10T22:00:28;7.90;99.90
53599;DHT22;39485;45.702;11.364;2022-12-10T22:02:54;7.80;99.90
53599;DHT22;39485;45.702;11.364;2022-12-10T22:05:20;7.80;99.90
53599;DHT22;39485;45.702;11.364;2022-12-10T22:07:46;7.80;99.90
53599;DHT22;39485;45.702;11.364;2022-12-10T22:10:12;7.80;99.90
53599;DHT22;39485;45.702;11.364;2022-12-10T22:12:38;7.80;99.90
53599;DHT22;39485;45.702;11.364;2022-12-10T22:15:05;7.80;99.90
53599;DHT22;39485;45.702;11.364;2022-12-10T22:17:31;7.70;99.90
53599;DHT22;39485;45.702;11.364;2022-12-10T22:19:57;7.70;99.90
53599;DHT22;39485;45.702;11.364;2022-12-10T22:22:23;7.70;99.90
53599;DHT22;39485;45.702;11.364;2022-12-10T22:24:49;7.70;99.90
53599;DHT22;39485;45.702;11.364;2022-12-10T22:27:15;7.70;99.90
53599;DHT22;39485;45.702;11.364;2022-12-10T22:29:40;7.70;99.90
53599;DHT22;39485;45.702;11.364;2022-12-10T22:32:06;7.70;99.90
53599;DHT22;39485;45.702;11.364;2022-12-10T22:34:31;7.70;99.90
53599;DHT22;39485;45.702;11.364;2022-12-10T22:36:57;7.70;99.90
53599;DHT22;39485;45.702;11.364;2022-12-10T22:39:24;7.70;99.90
53599;DHT22;39485;45.702;11.364;2022-12-10T22:41:50;7.70;99.90
53599;DHT22;39485;45.702;11.364;2022-12-10T22:44:16;7.70;99.90
53599;DHT22;39485;45.702;11.364;2022-12-10T22:46:42;7.70;99.90
53599;DHT22;39485;45.702;11.364;2022-12-10T22:49:07;7.70;99.90
53599;DHT22;39485;45.702;11.364;2022-12-10T22:51:33;7.70;99.90
53599;DHT22;39485;45.702;11.364;2022-12-10T22:53:59;7.70;99.90
53599;DHT22;39485;45.702;11.364;2022-12-10T22:56:26;7.70;99.90
53599;DHT22;39485;45.702;11.364;2022-12-10T22:58:56;7.70;99.90
53599;DHT22;39485;45.702;11.364;2022-12-10T23:01:24;7.70;99.90
53599;DHT22;39485;45.702;11.364;2022-12-10T23:03:51;7.70;99.90
53599;DHT22;39485;45.702;11.364;2022-12-10T23:06:19;7.70;99.90
53599;DHT22;39485;45.702;11.364;2022-12-10T23:08:45;7.60;99.90
53599;DHT22;39485;45.702;11.364;2022-12-10T23:11:12;7.60;99.90
53599;DHT22;39485;45.702;11.364;2022-12-10T23:13:38;7.60;99.90
53599;DHT22;39485;45.702;11.364;2022-12-10T23:16:09;7.50;99.90
53599;DHT22;39485;45.702;11.364;2022-12-10T23:18:35;7.50;99.90
53599;DHT22;39485;45.702;11.364;2022-12-10T23:21:01;7.40;99.90
53599;DHT22;39485;45.702;11.364;2022-12-10T23:23:27;7.40;99.90
53599;DHT22;39485;45.702;11.364;2022-12-10T23:25:53;7.40;99.90
53599;DHT22;39485;45.702;11.364;2022-12-10T23:28:19;7.30;99.90
53599;DHT22;39485;45.702;11.364;2022-12-10T23:30:56;7.20;99.90
53599;DHT22;39485;45.702;11.364;2022-12-10T23:33:21;7.20;99.90
53599;DHT22;39485;45.702;11.364;2022-12-10T23:35:47;7.20;99.90
53599;DHT22;39485;45.702;11.364;2022-12-10T23:38:14;7.20;99.90
53599;DHT22;39485;45.702;11.364;2022-12-10T23:40:41;7.10;99.90
53599;DHT22;39485;45.702;11.364;2022-12-10T23:43:07;7.10;99.90
53599;DHT22;39485;45.702;11.364;2022-12-10T23:45:33;7.10;99.90
53599;DHT22;39485;45.702;11.364;2022-12-10T23:47:59;7.10;99.90
53599;DHT22;39485;45.702;11.364;2022-12-10T23:50:25;7.10;99.90
53599;DHT22;39485;45.702;11.364;2022-12-10T23:52:51;7.10;99.90
53599;DHT22;39485;45.702;11.364;2022-12-10T23:55:19;7.10;99.90
53599;DHT22;39485;45.702;11.364;2022-12-10T23:57:44;7.10;99.90
